Time;durP1;ratioP1;P1;durP2;ratioP2;P2;SDS_P1;SDS_P2;PMS_P1;PMS_P2;Temp;Humidity;BMP_temperature;BMP_pressure;BME280_temperature;BME280_humidity;BME280_pressure;Samples;Min_cycle;Max_cycle;Signal;HPM_P1;HPM_P2
2022/11/24 00:01:18;;;;;;;39.65;22.00;;;;;;;4.09;87.26;96455.54;1635267;87;21013;-77
2022/11/24 00:03:54;;;;;;;37.28;21.90;;;;;;;4.09;87.42;96463.41;1635476;88;21088;-76
2022/11/24 00:06:23;;;;;;;41.50;21.90;;;;;;;4.10;87.23;96466.42;1592531;90;21108;-77
2022/11/24 00:08:50;;;;;;;43.02;22.77;;;;;;;4.09;87.42;96460.34;1619333;88;21064;-76
2022/11/24 00:11:21;;;;;;;40.52;21.50;;;;;;;4.08;87.30;96460.38;1619428;89;21040;-76
2022/11/24 00:13:48;;;;;;;40.88;22.30;;;;;;;4.05;87.22;96462.64;1619349;88;21076;-76
2022/11/24 00:16:19;;;;;;;40.25;23.83;;;;;;;4.03;87.24;96460.49;1619340;88;21446;-77
2022/11/24 00:18:49;;;;;;;42.90;23.32;;;;;;;3.96;87.06;96463.73;1619501;89;21019;-76
2022/11/24 00:21:17;;;;;;;39.63;21.73;;;;;;;3.94;86.87;96471.23;1619212;89;21063;-76
2022/11/24 00:23:45;;;;;;;43.25;23.15;;;;;;;3.90;87.12;96478.80;1619415;88;21067;-76
2022/11/24 00:26:16;;;;;;;44.35;23.40;;;;;;;3.87;87.11;96477.56;1619329;88;21088;-75
2022/11/24 00:28:45;;;;;;;37.90;22.07;;;;;;;3.87;86.97;96473.63;1619230;88;21000;-76
2022/11/24 00:31:25;;;;;;;39.15;21.27;;;;;;;3.85;87.09;96473.67;1609298;88;21516;-75
2022/11/24 00:33:55;;;;;;;39.15;20.72;;;;;;;3.86;87.15;96480.62;1618533;88;21031;-76
2022/11/24 00:36:24;;;;;;;39.63;21.60;;;;;;;3.86;87.20;96479.78;1619357;88;21122;-77
2022/11/24 00:38:58;;;;;;;38.78;22.40;;;;;;;3.83;87.03;96484.19;1619433;89;21031;-76
2022/11/24 00:41:26;;;;;;;41.58;22.37;;;;;;;3.86;87.51;96486.33;1618345;88;21081;-76
2022/11/24 00:43:54;;;;;;;39.55;21.90;;;;;;;3.85;87.34;96492.02;1619288;89;21032;-76
2022/11/24 00:46:23;;;;;;;40.10;22.22;;;;;;;3.86;87.37;96483.24;1619458;89;21502;-76
2022/11/24 00:48:50;;;;;;;39.50;22.00;;;;;;;3.87;87.43;96485.42;1619482;88;21034;-77
2022/11/24 00:51:19;;;;;;;41.23;22.65;;;;;;;3.88;87.66;96484.52;1619073;89;20996;-76
2022/11/24 00:53:46;;;;;;;43.02;23.18;;;;;;;3.85;87.48;96483.31;1614357;89;21004;-77
2022/11/24 00:56:13;;;;;;;45.58;23.38;;;;;;;3.85;87.60;96490.70;1587469;88;21013;-77
2022/11/24 00:58:40;;;;;;;41.15;23.22;;;;;;;3.87;87.55;96486.73;1614397;88;21064;-77
2022/11/24 01:01:16;;;;;;;38.55;22.15;;;;;;;3.89;87.48;96486.23;1614357;89;21067;-76
2022/11/24 01:03:43;;;;;;;44.73;23.62;;;;;;;3.90;87.50;96486.19;1614233;88;21036;-77
2022/11/24 01:06:17;;;;;;;41.28;22.90;;;;;;;3.90;87.57;96487.97;1614362;88;21041;-77
2022/11/24 01:08:45;;;;;;;43.35;23.75;;;;;;;3.89;87.49;96491.47;1614443;89;21063;-77
2022/11/24 01:11:22;;;;;;;42.33;23.32;;;;;;;3.89;87.50;96493.66;1592722;89;21068;-77
2022/11/24 01:13:58;;;;;;;43.25;23.55;;;;;;;3.91;87.38;96498.39;1614359;89;21419;-77
2022/11/24 01:16:33;;;;;;;46.25;24.52;;;;;;;3.88;87.59;96497.19;1614364;89;21086;-77
2022/11/24 01:19:02;;;;;;;45.43;23.85;;;;;;;3.90;87.50;96502.39;1614351;89;21052;-76
2022/11/24 01:21:29;;;;;;;44.75;24.00;;;;;;;3.89;87.47;96495.41;1614305;89;21092;-76
2022/11/24 01:23:56;;;;;;;44.13;23.95;;;;;;;3.91;87.53;96500.17;1614279;89;21020;-76
2022/11/24 01:26:23;;;;;;;46.20;23.87;;;;;;;3.93;87.75;96500.97;1614339;88;21036;-77
2022/11/24 01:28:57;;;;;;;39.05;22.30;;;;;;;3.95;87.66;96505.27;1614214;89;21064;-77
2022/11/24 01:31:24;;;;;;;;;;;;;;;3.96;87.69;96496.50;1598274;88;21347;-76
2022/11/24 01:33:52;;;;;;;41.42;22.05;;;;;;;3.97;87.78;96501.30;1606457;89;20118;-76
2022/11/24 01:36:20;;;;;;;42.35;22.65;;;;;;;3.98;87.87;96505.64;1614315;88;21040;-76
2022/11/24 01:38:46;;;;;;;42.17;22.15;;;;;;;3.98;87.91;96506.95;1613902;88;21051;-76
2022/11/24 01:41:17;;;;;;;39.03;21.77;;;;;;;4.00;87.75;96501.67;1614421;88;21006;-76
2022/11/24 01:43:45;;;;;;;35.70;20.80;;;;;;;4.00;87.60;96501.23;1614361;89;21082;-76
2022/11/24 01:46:43;;;;;;;35.60;21.70;;;;;;;3.97;87.38;96502.61;1614257;88;21025;-76
2022/11/24 01:49:21;;;;;;;38.70;21.37;;;;;;;3.94;87.50;96499.62;1614438;89;21033;-76
2022/11/24 01:52:02;;;;;;;38.50;21.77;;;;;;;3.92;87.37;96497.52;1613254;87;21052;-75
2022/11/24 01:54:36;;;;;;;34.58;20.68;;;;;;;3.92;87.50;96500.57;1614404;89;21432;-76
2022/11/24 01:57:21;;;;;;;38.75;21.12;;;;;;;3.91;87.71;96499.70;1614579;88;20992;-76
2022/11/24 01:59:52;;;;;;;43.08;21.57;;;;;;;3.93;87.88;96500.53;1608320;89;21006;-76
2022/11/24 02:02:20;;;;;;;35.52;20.37;;;;;;;3.95;87.92;96503.13;1614332;89;21127;-77
2022/11/24 02:04:48;;;;;;;37.70;20.35;;;;;;;3.98;87.89;96506.11;1614374;88;21038;-76
2022/11/24 02:07:15;;;;;;;34.88;19.92;;;;;;;4.00;87.58;96501.23;1614305;88;21002;-76
2022/11/24 02:10:02;;;;;;;39.65;20.08;;;;;;;4.01;87.72;96496.39;1614166;89;21062;-76
2022/11/24 02:12:28;;;;;;;34.35;19.82;;;;;;;4.03;87.70;96486.71;1614252;88;21401;-76
2022/11/24 02:14:56;;;;;;;29.40;18.98;;;;;;;4.11;87.81;96494.83;1614242;88;20985;-76
2022/11/24 02:17:22;;;;;;;34.73;19.55;;;;;;;4.16;87.89;96496.88;1614298;88;21130;-75
2022/11/24 02:19:59;;;;;;;37.48;19.73;;;;;;;4.24;87.99;96496.21;1614258;89;21070;-76
2022/11/24 02:23:15;;;;;;;37.08;20.40;;;;;;;4.33;88.31;96495.92;1614300;89;20991;-76
2022/11/24 02:25:56;;;;;;;33.65;18.62;;;;;;;4.44;88.35;96509.20;1614374;89;21074;-75
2022/11/24 02:28:25;;;;;;;35.33;19.70;;;;;;;4.51;87.95;96507.23;1614076;87;21015;-76
2022/11/24 02:30:53;;;;;;;32.63;19.60;;;;;;;4.52;87.80;96503.73;1614348;88;21073;-75
2022/11/24 02:33:21;;;;;;;35.85;19.42;;;;;;;4.53;87.74;96501.51;1614379;89;21014;-76
2022/11/24 02:35:48;;;;;;;30.30;18.65;;;;;;;4.55;87.77;96499.25;1614346;89;21038;-76
2022/11/24 02:38:15;;;;;;;35.50;18.87;;;;;;;4.60;87.85;96506.97;1614354;89;21018;-76
2022/11/24 02:40:46;;;;;;;28.35;18.05;;;;;;;4.61;88.17;96505.61;1614306;89;21076;-75
2022/11/24 02:43:18;;;;;;;30.72;17.80;;;;;;;4.68;88.12;96515.48;1614361;89;21034;-75
2022/11/24 02:45:45;;;;;;;32.05;18.17;;;;;;;4.71;88.07;96508.84;1614336;88;21532;-75
2022/11/24 02:48:14;;;;;;;31.15;18.12;;;;;;;4.76;88.14;96499.50;1592721;89;21022;-75
2022/11/24 02:50:41;;;;;;;27.52;17.90;;;;;;;4.78;88.13;96500.77;1614235;88;21121;-76
2022/11/24 02:53:08;;;;;;;31.62;18.45;;;;;;;4.79;87.82;96502.48;1617065;88;21493;-76
2022/11/24 02:55:34;;;;;;;34.50;20.25;;;;;;;4.75;88.10;96506.97;1619247;88;21026;-75
2022/11/24 02:58:01;;;;;;;34.95;20.12;;;;;;;4.77;87.94;96514.80;1619341;89;21113;-76
2022/11/24 03:00:28;;;;;;;34.08;20.20;;;;;;;4.78;88.21;96510.83;1619299;89;21010;-76
2022/11/24 03:02:54;;;;;;;37.63;22.35;;;;;;;4.80;88.01;96516.88;1619164;89;21006;-76
2022/11/24 03:05:21;;;;;;;38.08;19.98;;;;;;;4.75;87.73;96520.97;1619227;88;21050;-75
2022/11/24 03:07:48;;;;;;;35.38;20.30;;;;;;;4.75;87.91;96518.78;1619301;89;20998;-75
2022/11/24 03:10:15;;;;;;;37.78;19.73;;;;;;;4.71;87.74;96514.09;1619062;89;21519;-75
2022/11/24 03:12:42;;;;;;;39.85;21.02;;;;;;;4.66;87.34;96516.43;1619189;89;21495;-76
2022/11/24 03:15:10;;;;;;;35.30;20.88;;;;;;;4.57;87.21;96510.54;1619173;88;21014;-76
2022/11/24 03:17:37;;;;;;;34.10;20.37;;;;;;;4.48;87.02;96512.12;1619249;89;21002;-76
2022/11/24 03:20:04;;;;;;;34.45;20.90;;;;;;;4.42;87.34;96512.30;1619004;89;21030;-76
2022/11/24 03:22:31;;;;;;;37.98;20.92;;;;;;;4.40;87.64;96508.88;1619251;88;21459;-76
2022/11/24 03:24:58;;;;;;;36.15;20.62;;;;;;;4.41;87.67;96514.53;1619049;88;21046;-76
2022/11/24 03:27:25;;;;;;;37.17;20.80;;;;;;;4.38;87.75;96511.98;1619510;88;21030;-76
2022/11/24 03:29:51;;;;;;;37.88;21.68;;;;;;;4.35;87.74;96512.93;1619221;88;21101;-76
2022/11/24 03:32:18;;;;;;;36.10;21.23;;;;;;;4.34;87.81;96511.22;1619417;88;20999;-76
2022/11/24 03:34:44;;;;;;;31.77;20.02;;;;;;;4.31;87.75;96519.16;1619449;88;21058;-76
2022/11/24 03:37:11;;;;;;;37.73;22.50;;;;;;;4.27;87.90;96511.84;1619432;89;21009;-76
2022/11/24 03:39:37;;;;;;;38.92;22.05;;;;;;;4.25;87.79;96514.97;1619264;89;21009;-76
2022/11/24 03:42:04;;;;;;;36.00;22.37;;;;;;;4.23;87.95;96512.83;1619483;89;20996;-76
2022/11/24 03:44:31;;;;;;;38.88;23.42;;;;;;;4.23;88.23;96518.94;1619245;89;21032;-76
2022/11/24 03:46:57;;;;;;;40.80;23.25;;;;;;;4.19;88.10;96520.39;1619681;89;21028;-76
2022/11/24 03:49:24;;;;;;;40.63;22.98;;;;;;;4.16;88.24;96518.69;1619393;89;21060;-75
2022/11/24 03:51:50;;;;;;;40.92;23.07;;;;;;;4.17;88.21;96518.25;1619339;88;21000;-75
2022/11/24 03:54:17;;;;;;;44.73;22.80;;;;;;;4.16;88.25;96520.47;1626923;88;21486;-75
2022/11/24 03:56:44;;;;;;;38.80;22.52;;;;;;;4.16;88.14;96517.84;1652592;87;21067;-76
2022/11/24 03:59:10;;;;;;;39.80;23.10;;;;;;;4.15;88.18;96522.22;1652497;87;21027;-76
2022/11/24 04:01:37;;;;;;;39.67;22.25;;;;;;;4.13;88.03;96521.85;1652557;87;20964;-75
2022/11/24 04:04:04;;;;;;;39.27;22.27;;;;;;;4.11;88.24;96524.52;1652549;87;21020;-76
2022/11/24 04:06:30;;;;;;;42.70;23.18;;;;;;;4.12;88.43;96520.14;1652482;87;20988;-75
2022/11/24 04:08:56;;;;;;;36.75;20.75;;;;;;;4.13;88.41;96524.47;1652519;87;21068;-75
2022/11/24 04:14:08;;;;;;;41.02;23.38;;;;;;;4.12;88.91;96534.56;1634151;87;20981;-75
2022/11/24 04:16:34;;;;;;;37.58;22.87;;;;;;;4.12;88.56;96539.80;1652648;87;21413;-74
2022/11/24 04:19:01;;;;;;;43.90;23.65;;;;;;;4.09;88.67;96537.69;1631558;87;21039;-75
2022/11/24 04:21:27;;;;;;;43.38;23.75;;;;;;;4.11;88.75;96536.78;1652748;87;21031;-76
2022/11/24 04:23:54;;;;;;;39.78;23.32;;;;;;;4.09;88.96;96537.69;1652586;87;21004;-75
2022/11/24 04:26:20;;;;;;;40.30;22.85;;;;;;;4.10;88.85;96535.91;1652670;87;21016;-75
2022/11/24 04:28:47;;;;;;;39.00;22.37;;;;;;;4.09;88.80;96535.50;1652654;87;20989;-75
2022/11/24 04:31:13;;;;;;;41.33;23.07;;;;;;;4.07;88.86;96538.63;1652823;87;20992;-76
2022/11/24 04:33:40;;;;;;;38.73;22.93;;;;;;;4.08;89.03;96538.56;1652545;87;21430;-76
2022/11/24 04:36:07;;;;;;;39.98;24.32;;;;;;;4.08;89.24;96539.88;1652574;87;21007;-76
2022/11/24 04:38:33;;;;;;;43.25;25.17;;;;;;;4.09;89.69;96539.44;1652682;87;21052;-76
2022/11/24 04:41:02;;;;;;;44.80;24.40;;;;;;;4.07;89.39;96543.88;1650516;87;21008;-76
2022/11/24 04:43:30;;;;;;;38.02;22.20;;;;;;;4.07;89.45;96543.88;1652615;87;21466;-76
2022/11/24 04:46:01;;;;;;;45.25;24.05;;;;;;;4.09;89.46;96540.75;1652538;87;21031;-75
2022/11/24 04:48:28;;;;;;;43.42;24.07;;;;;;;4.10;89.15;96543.77;1633610;87;21079;-76
2022/11/24 04:50:55;;;;;;;43.58;23.45;;;;;;;4.14;89.49;96547.16;1652357;87;21043;-76
2022/11/24 04:53:21;;;;;;;40.05;22.87;;;;;;;4.18;89.50;96548.37;1649698;86;21298;-76
2022/11/24 04:55:48;;;;;;;36.48;22.13;;;;;;;4.21;89.30;96545.67;1600159;90;21015;-77
2022/11/24 04:58:14;;;;;;;35.88;21.82;;;;;;;4.24;89.58;96546.03;1650875;87;21024;-76
2022/11/24 05:00:41;;;;;;;34.90;21.25;;;;;;;4.30;89.66;96554.16;1601974;90;21048;-77
2022/11/24 05:03:07;;;;;;;37.17;21.70;;;;;;;4.34;89.95;96556.68;1643852;87;20983;-76
2022/11/24 05:05:34;;;;;;;37.53;21.65;;;;;;;4.41;90.43;96552.12;1652320;87;21485;-77
2022/11/24 05:08:00;;;;;;;38.35;21.97;;;;;;;4.48;90.48;96558.03;1652573;87;20976;-77
2022/11/24 05:10:36;;;;;;;35.43;20.45;;;;;;;4.56;90.73;96561.30;1652527;87;21406;-76
2022/11/24 05:13:08;;;;;;;35.85;21.10;;;;;;;4.67;90.74;96563.63;1652679;87;20992;-75
2022/11/24 05:15:38;;;;;;;33.98;20.92;;;;;;;4.73;90.19;96563.87;1652440;87;21060;-75
2022/11/24 05:18:06;;;;;;;33.60;20.70;;;;;;;4.70;89.83;96562.67;1652513;87;21012;-76
2022/11/24 05:20:34;;;;;;;33.05;19.92;;;;;;;4.69;90.01;96564.43;1652432;87;21012;-76
2022/11/24 05:23:04;;;;;;;34.18;20.32;;;;;;;4.74;90.93;96561.22;1652421;87;21536;-76
2022/11/24 05:25:33;;;;;;;32.70;20.02;;;;;;;4.84;91.11;96571.01;1652471;87;21051;-77
2022/11/24 05:28:02;;;;;;;32.40;19.65;;;;;;;4.88;90.75;96572.64;1652467;87;21040;-77
2022/11/24 05:30:30;;;;;;;29.65;18.92;;;;;;;4.91;90.51;96573.44;1652420;87;21000;-77
2022/11/24 05:32:57;;;;;;;36.30;21.25;;;;;;;4.93;90.77;96580.80;1652495;87;20993;-77
2022/11/24 05:35:24;;;;;;;33.67;20.10;;;;;;;4.89;90.69;96582.23;1652480;87;21048;-77
2022/11/24 05:37:50;;;;;;;37.05;19.60;;;;;;;4.88;90.35;96590.14;1652384;87;21075;-77
2022/11/24 05:40:17;;;;;;;26.70;17.42;;;;;;;4.89;90.53;96588.80;1652500;87;21056;-77
2022/11/24 05:42:44;;;;;;;27.73;18.35;;;;;;;4.86;89.92;96592.81;1652492;87;21414;-78
2022/11/24 05:45:18;;;;;;;31.23;17.92;;;;;;;4.81;90.45;96597.80;1652457;87;21083;-79
2022/11/24 05:47:45;;;;;;;32.08;18.65;;;;;;;4.75;90.39;96597.08;1652636;87;21012;-79
2022/11/24 05:50:16;;;;;;;34.70;19.30;;;;;;;4.69;90.41;96616.08;1652357;87;21047;-79
2022/11/24 05:52:43;;;;;;;34.48;19.60;;;;;;;4.61;90.16;96607.11;1652313;87;21040;-78
2022/11/24 05:55:10;;;;;;;36.60;19.57;;;;;;;4.53;90.34;96611.23;1643479;87;21023;-79
2022/11/24 05:57:37;;;;;;;30.68;19.23;;;;;;;4.48;89.95;96611.81;1647444;87;21438;-78
2022/11/24 06:00:06;;;;;;;36.03;20.37;;;;;;;4.42;90.25;96621.17;1647606;87;21004;-79
2022/11/24 06:02:34;;;;;;;29.12;18.17;;;;;;;4.36;90.53;96618.25;1646880;87;21004;-78
2022/11/24 06:05:01;;;;;;;29.85;18.20;;;;;;;4.33;90.89;96631.47;1647379;87;21035;-79
2022/11/24 06:07:28;;;;;;;33.15;19.42;;;;;;;4.29;91.17;96633.76;1647476;87;20996;-80
2022/11/24 06:09:54;;;;;;;31.73;19.62;;;;;;;4.25;90.83;96636.05;1647270;87;20985;-79
2022/11/24 06:12:20;;;;;;;33.45;21.07;;;;;;;4.14;91.74;96641.13;1647415;87;21388;-79
2022/11/24 06:14:47;;;;;;;35.30;21.70;;;;;;;4.08;91.39;96647.84;1647400;87;21462;-80
2022/11/24 06:17:13;;;;;;;38.67;22.32;;;;;;;4.06;91.38;96641.75;1647550;87;21077;-80
2022/11/24 06:19:40;;;;;;;45.17;24.32;;;;;;;4.04;91.37;96640.95;1647581;87;21379;-80
2022/11/24 06:22:06;;;;;;;40.90;22.73;;;;;;;4.03;90.92;96646.63;1647502;87;21113;-80
2022/11/24 06:24:33;;;;;;;35.98;22.60;;;;;;;4.01;91.21;96655.43;1647598;87;21016;-80
2022/11/24 06:26:59;;;;;;;37.83;23.07;;;;;;;3.98;91.93;96659.46;1647511;87;21036;-81
2022/11/24 06:29:26;;;;;;;35.43;22.10;;;;;;;3.94;92.71;96654.28;1647606;87;21470;-81
2022/11/24 06:31:53;;;;;;;40.25;22.13;;;;;;;3.92;92.63;96656.53;1647444;87;20981;-81
2022/11/24 06:34:20;;;;;;;35.38;22.00;;;;;;;3.87;94.44;96657.09;1647411;87;21092;-80
2022/11/24 06:36:46;;;;;;;35.20;20.80;;;;;;;3.85;92.68;96662.37;1647474;87;21084;-80
2022/11/24 06:39:13;;;;;;;33.80;21.00;;;;;;;3.86;93.16;96667.17;1647487;87;21016;-81
2022/11/24 06:41:39;;;;;;;34.10;19.55;;;;;;;3.88;93.18;96672.79;1647464;87;21040;-81
2022/11/24 06:44:06;;;;;;;33.50;19.67;;;;;;;3.90;93.17;96680.16;1647544;87;20993;-80
2022/11/24 06:46:33;;;;;;;46.02;24.50;;;;;;;3.93;92.74;96675.28;1643505;87;21036;-81
2022/11/24 06:49:01;;;;;;;42.85;25.17;;;;;;;3.96;93.31;96681.77;1633031;87;21441;-81
2022/11/24 06:51:28;;;;;;;35.95;22.22;;;;;;;4.00;92.80;96681.24;1647418;87;21016;-82
2022/11/24 06:53:55;;;;;;;37.58;22.52;;;;;;;4.03;92.84;96692.51;1646699;87;21442;-82
2022/11/24 06:56:21;;;;;;;36.77;21.97;;;;;;;4.07;92.93;96692.01;1600425;90;21062;-80
2022/11/24 06:58:51;;;;;;;37.70;22.52;;;;;;;4.11;92.99;96696.72;1652673;87;20984;-81
2022/11/24 07:01:22;;;;;;;37.30;21.62;;;;;;;4.14;93.20;96700.56;1652352;87;21007;-81
2022/11/24 07:03:50;;;;;;;38.00;22.40;;;;;;;4.17;92.95;96703.98;1652390;87;21458;-80
2022/11/24 07:06:18;;;;;;;36.17;22.00;;;;;;;4.19;93.02;96707.89;1652452;87;21036;-81
2022/11/24 07:08:46;;;;;;;40.00;22.98;;;;;;;4.21;93.31;96704.77;1652265;87;21035;-81
2022/11/24 07:11:19;;;;;;;34.15;21.20;;;;;;;4.22;93.13;96702.11;1652399;87;21024;-81
2022/11/24 07:13:46;;;;;;;34.08;20.82;;;;;;;4.22;93.54;96706.05;1652168;87;22148;-82
2022/11/24 07:16:20;;;;;;;40.28;22.30;;;;;;;4.23;93.31;96718.69;1652090;87;21035;-82
2022/11/24 07:18:50;;;;;;;46.63;24.47;;;;;;;4.25;93.67;96709.04;1652600;87;21402;-82
2022/11/24 07:21:19;;;;;;;40.38;22.15;;;;;;;4.28;93.92;96709.41;1652514;87;21514;-82
2022/11/24 07:23:50;;;;;;;36.53;20.30;;;;;;;4.30;94.07;96707.16;1652459;87;20996;-82
2022/11/24 07:26:18;;;;;;;37.45;20.85;;;;;;;4.34;94.47;96709.25;1652421;87;21024;-82
2022/11/24 07:28:44;;;;;;;30.27;19.98;;;;;;;4.39;94.57;96711.77;1652319;87;21003;-82
2022/11/24 07:31:15;;;;;;;33.78;21.68;;;;;;;4.46;94.52;96717.26;1652412;87;21026;-82
2022/11/24 07:33:41;;;;;;;30.52;20.40;;;;;;;4.54;94.30;96717.93;1652469;87;20992;-82
2022/11/24 07:36:09;;;;;;;28.00;19.52;;;;;;;4.58;94.50;96721.33;1651974;87;21824;-82
2022/11/24 07:38:36;;;;;;;28.17;17.65;;;;;;;4.65;94.52;96723.34;1651103;87;21032;-83
2022/11/24 07:41:07;;;;;;;29.72;19.07;;;;;;;4.73;94.46;96731.86;1625766;87;21083;-82
2022/11/24 07:43:36;;;;;;;30.43;19.40;;;;;;;4.76;94.92;96730.47;1601642;88;21021;-82
2022/11/24 07:46:06;;;;;;;31.02;17.73;;;;;;;4.82;95.04;96731.61;1625887;88;21024;-82
2022/11/24 07:48:34;;;;;;;28.67;18.27;;;;;;;4.89;95.02;96724.44;1585138;90;21083;-82
2022/11/24 07:51:02;;;;;;;30.85;18.32;;;;;;;4.96;95.34;96736.95;1624814;87;21079;-81
2022/11/24 07:53:29;;;;;;;25.10;15.65;;;;;;;5.01;95.20;96735.05;1600729;88;21045;-81
2022/11/24 07:56:00;;;;;;;24.82;16.12;;;;;;;5.07;95.77;96734.88;1600419;90;21026;-82
2022/11/24 07:58:30;;;;;;;22.22;15.20;;;;;;;5.09;95.65;96741.41;1600297;90;21190;-81
2022/11/24 08:00:57;;;;;;;23.45;14.00;;;;;;;5.13;95.65;96739.98;1600461;90;20991;-82
2022/11/24 08:03:24;;;;;;;13.55;9.48;;;;;;;5.18;95.60;96742.46;1600175;90;21015;-82
2022/11/24 08:05:55;;;;;;;13.70;8.98;;;;;;;5.19;95.54;96752.06;1620602;88;21044;-82
2022/11/24 08:08:22;;;;;;;13.30;8.48;;;;;;;5.18;95.82;96746.41;1620590;89;21044;-82
2022/11/24 08:10:49;;;;;;;16.35;10.00;;;;;;;5.26;96.02;96749.69;1620527;89;21072;-83
2022/11/24 08:13:17;;;;;;;12.10;8.45;;;;;;;5.34;96.56;96748.59;1593197;89;21124;-83
2022/11/24 08:15:44;;;;;;;11.70;7.47;;;;;;;5.38;96.20;96747.16;1599882;90;21011;-83
2022/11/24 08:18:11;;;;;;;11.70;7.30;;;;;;;5.36;96.05;96750.27;1620552;88;20972;-83
2022/11/24 08:20:37;;;;;;;11.40;7.40;;;;;;;5.38;95.96;96753.73;1620728;88;21064;-83
2022/11/24 08:23:04;;;;;;;10.63;6.87;;;;;;;5.38;95.81;96755.05;1620771;88;21044;-83
2022/11/24 08:25:31;;;;;;;9.70;7.15;;;;;;;5.41;95.91;96760.66;1600438;89;21047;-83
2022/11/24 08:28:03;;;;;;;9.18;6.87;;;;;;;5.42;96.08;96759.75;1574348;91;20943;-82
2022/11/24 08:30:30;;;;;;;10.23;7.42;;;;;;;5.43;95.75;96758.84;1574188;90;21029;-83
2022/11/24 08:33:00;;;;;;;10.63;6.53;;;;;;;5.40;96.05;96757.16;1600387;90;20975;-82
2022/11/24 08:35:27;;;;;;;9.85;6.45;;;;;;;5.48;96.37;96762.19;1600687;89;21020;-82
2022/11/24 08:37:54;;;;;;;8.10;5.87;;;;;;;5.47;96.10;96766.17;1618096;88;21036;-82
2022/11/24 08:40:21;;;;;;;7.97;5.62;;;;;;;5.47;95.75;96768.80;1617857;88;21160;-82
2022/11/24 08:42:47;;;;;;;8.00;6.05;;;;;;;5.37;95.60;96770.41;1618154;89;21136;-82
2022/11/24 08:45:14;;;;;;;13.08;6.33;;;;;;;5.34;95.93;96776.17;1618079;88;21032;-82
2022/11/24 08:47:40;;;;;;;8.48;5.47;;;;;;;5.39;96.34;96776.46;1590385;89;21105;-82
2022/11/24 08:50:08;;;;;;;7.37;5.33;;;;;;;5.41;96.57;96772.48;1575479;90;21074;-81
2022/11/24 08:52:35;;;;;;;8.43;5.22;;;;;;;5.40;95.92;96768.98;1599364;90;21440;-82
2022/11/24 08:55:02;;;;;;;10.43;6.42;;;;;;;5.36;95.46;96773.91;1584575;89;21063;-81
2022/11/24 08:57:29;;;;;;;10.20;6.35;;;;;;;5.33;95.55;96768.77;1614178;88;20960;-81
2022/11/24 08:59:55;;;;;;;6.95;5.53;;;;;;;5.29;96.04;96777.16;1599253;90;21592;-81
2022/11/24 09:02:22;;;;;;;9.35;6.35;;;;;;;5.25;95.87;96783.43;1591184;90;21000;-82
2022/11/24 09:04:49;;;;;;;10.93;7.47;;;;;;;5.24;95.69;96775.59;1613893;89;21020;-83
2022/11/24 09:07:15;;;;;;;9.53;6.08;;;;;;;5.23;95.46;96779.97;1599239;90;21032;-83
2022/11/24 09:09:41;;;;;;;8.03;6.17;;;;;;;5.22;95.98;96777.37;1591292;90;21043;-83
2022/11/24 09:12:08;;;;;;;9.45;5.87;;;;;;;5.24;95.89;96780.84;1614221;89;21414;-83
2022/11/24 09:14:35;;;;;;;9.20;6.08;;;;;;;5.25;95.63;96779.48;1599189;90;21111;-83
2022/11/24 09:17:02;;;;;;;12.28;6.97;;;;;;;5.25;95.95;96780.80;1614221;89;20997;-83
2022/11/24 09:19:28;;;;;;;8.48;5.37;;;;;;;5.27;96.11;96778.11;1614153;89;21124;-83
2022/11/24 09:21:55;;;;;;;7.08;4.85;;;;;;;5.31;95.99;96779.75;1614303;89;21061;-83
2022/11/24 09:24:21;;;;;;;8.65;5.15;;;;;;;5.31;96.03;96779.75;1599353;90;21089;-83
2022/11/24 09:26:48;;;;;;;7.55;5.33;;;;;;;5.33;96.11;96772.70;1599359;90;21032;-83
2022/11/24 09:29:14;;;;;;;8.83;5.87;;;;;;;5.36;95.86;96775.22;1590937;90;21000;-83
2022/11/24 09:31:41;;;;;;;9.53;6.03;;;;;;;5.37;96.13;96777.41;1614276;89;21034;-83
2022/11/24 09:34:12;;;;;;;5.20;3.30;;;;;;;5.39;96.60;96774.27;1599642;90;21112;-83
2022/11/24 09:36:39;;;;;;;4.40;2.95;;;;;;;5.37;95.65;96778.28;1614310;88;21009;-83
2022/11/24 09:39:05;;;;;;;5.70;3.45;;;;;;;5.31;95.56;96779.75;1614344;88;21009;-83
2022/11/24 09:41:55;;;;;;;5.62;3.45;;;;;;;5.26;95.41;96783.83;1605077;89;21049;-84
2022/11/24 09:44:53;;;;;;;6.22;3.60;;;;;;;5.21;95.58;96781.78;1599240;88;21028;-82
2022/11/24 09:47:56;;;;;;;6.10;3.40;;;;;;;5.15;95.50;96784.13;1577965;90;21020;-82
2022/11/24 09:50:30;;;;;;;5.80;3.45;;;;;;;5.13;95.81;96783.31;1614050;88;21088;-82
2022/11/24 09:53:08;;;;;;;6.50;3.90;;;;;;;5.13;96.01;96786.38;1590448;90;21064;-82
2022/11/24 09:55:49;;;;;;;5.50;3.77;;;;;;;5.13;95.75;96790.31;1623636;88;21528;-82
2022/11/24 09:58:41;;;;;;;7.35;3.75;;;;;;;5.12;95.97;96793.38;1651857;87;21035;-82
2022/11/24 10:01:22;;;;;;;6.37;4.15;;;;;;;5.09;95.90;96789.55;1652479;87;20976;-82
2022/11/24 10:03:51;;;;;;;4.95;3.12;;;;;;;5.06;95.78;96790.93;1652456;87;20991;-82
2022/11/24 10:06:25;;;;;;;4.70;2.55;;;;;;;5.02;95.73;96790.16;1652430;87;21055;-82
2022/11/24 10:09:25;;;;;;;4.08;2.65;;;;;;;5.00;95.49;96795.92;1652515;86;21027;-83
2022/11/24 10:12:33;;;;;;;3.62;1.75;;;;;;;4.98;95.62;96785.89;1652413;87;21407;-81
2022/11/24 10:15:21;;;;;;;3.17;1.30;;;;;;;5.01;96.13;96796.77;1652469;87;20976;-81
2022/11/24 10:18:31;;;;;;;1.60;1.10;;;;;;;4.97;95.65;96797.30;1652427;87;21024;-82
2022/11/24 10:21:29;;;;;;;1.50;1.10;;;;;;;4.96;95.40;96794.27;1652611;87;20964;-82
2022/11/24 10:24:18;;;;;;;1.95;1.25;;;;;;;4.95;95.65;96793.87;1652339;87;21036;-84
2022/11/24 10:26:57;;;;;;;1.77;0.93;;;;;;;4.96;95.74;96800.84;1641924;86;21468;-83
2022/11/24 10:29:35;;;;;;;1.92;1.20;;;;;;;4.98;95.65;96799.02;1645728;87;21027;-83
2022/11/24 10:32:18;;;;;;;3.58;1.40;;;;;;;4.99;95.62;96803.83;1652332;87;21047;-83
2022/11/24 10:34:50;;;;;;;3.13;1.37;;;;;;;5.03;96.21;96806.80;1652795;87;21004;-83
2022/11/24 10:37:34;;;;;;;2.45;1.60;;;;;;;5.01;95.84;96808.58;1638368;87;21057;-83
2022/11/24 10:40:35;;;;;;;2.08;1.40;;;;;;;5.04;95.79;96805.88;1651314;87;21159;-83
2022/11/24 10:43:04;;;;;;;1.90;1.10;;;;;;;5.05;95.64;96807.59;1651796;87;21502;-83
2022/11/24 10:45:31;;;;;;;1.25;0.80;;;;;;;5.03;95.53;96812.05;1652418;87;20979;-83
2022/11/24 10:47:58;;;;;;;1.47;0.98;;;;;;;4.93;94.58;96815.78;1652475;87;21469;-83
2022/11/24 10:50:32;;;;;;;3.17;1.30;;;;;;;4.89;95.35;96815.88;1652415;87;21023;-83
2022/11/24 10:53:13;;;;;;;1.67;0.90;;;;;;;4.87;95.38;96816.36;1652520;87;21008;-83
2022/11/24 10:55:59;;;;;;;1.37;0.62;;;;;;;4.81;94.67;96819.62;1652451;87;21054;-83
2022/11/24 10:58:36;;;;;;;1.82;0.82;;;;;;;4.79;95.22;96814.40;1652515;87;21417;-83
2022/11/24 11:01:17;;;;;;;0.82;0.60;;;;;;;4.78;95.33;96820.55;1652249;87;21095;-82
2022/11/24 11:03:51;;;;;;;1.30;0.80;;;;;;;4.72;93.89;96820.69;1652598;87;21004;-83
2022/11/24 11:06:29;;;;;;;0.90;0.70;;;;;;;4.62;93.96;96822.70;1652469;87;20992;-83
2022/11/24 11:09:18;;;;;;;0.85;0.50;;;;;;;4.53;94.28;96823.77;1652411;87;21055;-82
2022/11/24 11:11:47;;;;;;;1.40;0.80;;;;;;;4.49;94.34;96826.07;1652509;87;21061;-82
2022/11/24 11:14:34;;;;;;;1.52;0.70;;;;;;;4.46;94.38;96824.39;1652349;87;22552;-82
2022/11/24 11:17:01;;;;;;;2.10;0.70;;;;;;;4.48;94.64;96813.83;1652463;87;22216;-82
2022/11/24 11:19:33;;;;;;;1.80;0.93;;;;;;;4.53;95.09;96822.92;1652348;87;20996;-81
2022/11/24 11:22:05;;;;;;;2.37;1.55;;;;;;;4.62;95.31;96827.47;1652370;87;21068;-82
2022/11/24 11:24:32;;;;;;;1.40;0.95;;;;;;;4.68;95.46;96821.22;1652456;87;21059;-82
2022/11/24 11:27:02;;;;;;;1.60;0.80;;;;;;;4.72;95.12;96829.44;1652486;87;21008;-82
2022/11/24 11:29:30;;;;;;;2.27;1.12;;;;;;;4.66;94.68;96828.28;1652437;87;21414;-83
2022/11/24 11:32:05;;;;;;;1.25;0.80;;;;;;;4.65;94.72;96831.78;1652508;87;21036;-82
2022/11/24 11:34:35;;;;;;;2.55;1.37;;;;;;;4.62;94.65;96835.81;1651013;86;21482;-83
2022/11/24 11:37:03;;;;;;;2.83;1.37;;;;;;;4.60;94.71;96827.97;1652559;87;21059;-82
2022/11/24 11:39:36;;;;;;;3.35;1.30;;;;;;;4.56;94.51;96835.94;1652410;87;21408;-82
2022/11/24 11:42:34;;;;;;;1.90;1.07;;;;;;;4.52;94.86;96835.63;1652377;87;21023;-82
2022/11/24 11:45:27;;;;;;;2.25;1.45;;;;;;;4.49;94.58;96826.91;1652489;87;21063;-82
2022/11/24 11:48:02;;;;;;;2.40;1.45;;;;;;;4.44;94.71;96833.19;1639261;87;20995;-83